createdAt,value
2018-04-19T00:01:15.926Z,15.90
2018-04-19T00:03:43.389Z,15.80
2018-04-19T00:06:10.847Z,15.80
2018-04-19T00:08:38.294Z,15.80
2018-04-19T00:11:06.525Z,15.70
2018-04-19T00:13:33.992Z,15.70
2018-04-19T00:16:01.476Z,15.60
2018-04-19T00:18:28.930Z,15.60
2018-04-19T00:20:56.368Z,15.60
2018-04-19T00:23:23.824Z,15.50
2018-04-19T00:25:51.282Z,15.50
2018-04-19T00:28:18.759Z,15.50
2018-04-19T00:30:46.215Z,15.50
2018-04-19T00:33:14.440Z,15.50
2018-04-19T00:35:41.893Z,15.50
2018-04-19T00:38:09.371Z,15.40
2018-04-19T00:40:36.867Z,15.40
2018-04-19T00:43:04.326Z,15.40
2018-04-19T00:45:31.781Z,15.30
2018-04-19T00:47:59.231Z,15.30
2018-04-19T00:50:27.506Z,15.20
2018-04-19T00:53:07.611Z,15.30
2018-04-19T00:55:35.090Z,15.20
2018-04-19T00:58:02.580Z,15.30
2018-04-19T01:00:30.047Z,15.20
2018-04-19T01:02:58.314Z,15.20
2018-04-19T01:05:26.539Z,15.20
2018-04-19T01:07:54.012Z,15.10
2018-04-19T01:10:21.526Z,15.10
2018-04-19T01:12:49.001Z,15.10
2018-04-19T01:15:16.440Z,15.10
2018-04-19T01:17:43.889Z,15.10
2018-04-19T01:20:12.107Z,15.10
2018-04-19T01:22:39.569Z,15.10
2018-04-19T01:25:07.034Z,15.20
2018-04-19T01:27:34.510Z,15.10
2018-04-19T01:30:01.969Z,15.10
2018-04-19T01:32:29.427Z,15.00
2018-04-19T01:34:56.890Z,15.00
2018-04-19T01:37:24.362Z,15.10
2018-04-19T01:39:52.584Z,15.20
2018-04-19T01:42:20.054Z,15.10
2018-04-19T01:44:48.267Z,15.10
2018-04-19T01:47:15.715Z,15.10
2018-04-19T01:49:43.171Z,15.10
2018-04-19T01:52:10.666Z,15.10
2018-04-19T01:54:38.145Z,15.10
2018-04-19T01:57:05.581Z,15.10
2018-04-19T01:59:33.043Z,15.10
2018-04-19T02:02:00.480Z,15.00
2018-04-19T02:04:27.952Z,15.10
2018-04-19T02:06:55.459Z,15.00
2018-04-19T02:09:22.918Z,15.00
2018-04-19T02:11:50.371Z,15.00
2018-04-19T02:14:17.828Z,14.90
2018-04-19T02:16:45.288Z,14.90
2018-04-19T02:19:13.599Z,14.80
2018-04-19T02:21:41.042Z,14.80
2018-04-19T02:24:08.523Z,14.70
2018-04-19T02:26:35.957Z,14.70
2018-04-19T02:29:03.407Z,14.70
2018-04-19T02:31:31.656Z,14.60
2018-04-19T02:33:59.126Z,14.60
2018-04-19T02:36:26.595Z,14.60
2018-04-19T02:38:54.343Z,14.50
2018-04-19T02:41:21.803Z,14.50
2018-04-19T02:43:49.282Z,14.50
2018-04-19T02:46:16.732Z,14.50
2018-04-19T02:48:44.222Z,14.50
2018-04-19T02:51:11.731Z,14.50
2018-04-19T02:53:39.959Z,14.40
2018-04-19T02:56:07.413Z,14.40
2018-04-19T02:58:34.870Z,14.30
2018-04-19T03:01:02.327Z,14.30
2018-04-19T03:03:30.568Z,14.30
2018-04-19T03:05:58.006Z,14.20
2018-04-19T03:08:25.466Z,14.30
2018-04-19T03:10:52.927Z,14.20
2018-04-19T03:13:20.410Z,14.10
2018-04-19T03:15:47.888Z,14.10
2018-04-19T03:18:15.344Z,14.10
2018-04-19T03:20:43.574Z,14.00
2018-04-19T03:23:11.038Z,14.00
2018-04-19T03:25:40.175Z,13.90
2018-04-19T03:28:07.631Z,13.90
2018-04-19T03:30:35.087Z,14.00
2018-04-19T03:33:02.619Z,14.00
2018-04-19T03:35:30.126Z,14.00
2018-04-19T03:37:57.567Z,14.00
2018-04-19T03:40:25.023Z,14.00
2018-04-19T03:42:52.487Z,14.00
2018-04-19T03:45:19.954Z,14.00
2018-04-19T03:47:47.411Z,14.00
2018-04-19T03:50:15.663Z,14.00
2018-04-19T03:52:43.127Z,13.90
2018-04-19T03:55:11.354Z,13.70
2018-04-19T03:57:38.810Z,13.70
2018-04-19T04:00:07.066Z,13.40
2018-04-19T04:02:34.583Z,13.40
2018-04-19T04:05:02.050Z,13.40
2018-04-19T04:07:29.505Z,13.30
2018-04-19T04:09:56.959Z,13.20
2018-04-19T04:12:25.194Z,13.10
2018-04-19T04:14:52.651Z,13.10
2018-04-19T04:17:32.784Z,13.20
2018-04-19T04:23:24.298Z,13.20
2018-04-19T04:25:51.758Z,13.20
2018-04-19T04:28:20.003Z,13.00
2018-04-19T04:30:47.444Z,13.00
2018-04-19T04:33:15.750Z,13.10
2018-04-19T04:35:43.205Z,13.00
2018-04-19T04:38:10.670Z,13.10
2018-04-19T04:40:38.160Z,13.10
2018-04-19T04:43:06.405Z,13.30
2018-04-19T04:45:34.622Z,13.30
2018-04-19T04:48:02.070Z,13.30
2018-04-19T04:50:29.526Z,13.30
2018-04-19T04:52:57.011Z,13.30
2018-04-19T04:55:24.512Z,13.30
2018-04-19T04:57:51.970Z,13.30
2018-04-19T05:00:19.473Z,13.40
2018-04-19T05:02:46.906Z,13.50
2018-04-19T05:05:14.374Z,13.60
2018-04-19T05:07:41.827Z,13.70
2018-04-19T05:10:09.307Z,13.70
2018-04-19T05:12:37.534Z,13.90
2018-04-19T05:15:05.006Z,13.90
2018-04-19T05:17:33.263Z,14.00
2018-04-19T05:20:00.762Z,14.00
2018-04-19T05:22:28.207Z,14.10
2018-04-19T05:24:55.670Z,14.10
2018-04-19T05:27:23.125Z,14.30
2018-04-19T05:29:51.291Z,14.40
2018-04-19T05:32:19.210Z,14.40
2018-04-19T05:34:46.718Z,14.40
2018-04-19T05:37:15.005Z,14.60
2018-04-19T05:39:42.606Z,14.60
2018-04-19T05:42:10.064Z,14.70
2018-04-19T05:44:37.534Z,14.80
2018-04-19T05:47:05.012Z,14.80
2018-04-19T05:49:32.487Z,14.90
2018-04-19T05:51:59.956Z,14.90
2018-04-19T05:54:27.465Z,14.90
2018-04-19T05:56:54.961Z,14.90
2018-04-19T05:59:22.418Z,15.00
2018-04-19T06:01:49.878Z,15.10
2018-04-19T06:04:18.130Z,15.30
2018-04-19T06:06:45.607Z,15.30
2018-04-19T06:09:13.832Z,15.60
2018-04-19T06:11:41.335Z,15.50
2018-04-19T06:14:08.786Z,15.70
2018-04-19T06:16:36.259Z,15.90
2018-04-19T06:19:03.744Z,16.10
2018-04-19T06:21:31.975Z,16.40
2018-04-19T06:23:59.439Z,16.40
2018-04-19T06:26:27.665Z,16.90
2018-04-19T06:28:55.109Z,16.90
2018-04-19T06:31:22.564Z,17.20
2018-04-19T06:33:50.002Z,17.40
2018-04-19T06:36:17.450Z,17.40
2018-04-19T06:38:44.919Z,17.60
2018-04-19T06:41:12.451Z,17.90
2018-04-19T06:43:41.110Z,18.00
2018-04-19T06:46:08.579Z,18.20
2018-04-19T06:48:36.787Z,18.60
2018-04-19T06:51:04.258Z,18.60
2018-04-19T06:53:31.715Z,18.90
2018-04-19T06:55:59.180Z,18.80
2018-04-19T06:58:26.636Z,18.80
2018-04-19T07:00:54.470Z,19.20
2018-04-19T07:03:22.665Z,19.50
2018-04-19T07:05:50.133Z,19.50
2018-04-19T07:08:17.645Z,19.80
2018-04-19T07:10:45.149Z,19.60
2018-04-19T07:13:12.612Z,19.70
2018-04-19T07:15:40.136Z,19.70
2018-04-19T07:18:08.347Z,19.50
2018-04-19T07:20:35.800Z,19.50
2018-04-19T07:23:03.304Z,19.30
2018-04-19T07:25:30.716Z,19.60
2018-04-19T07:27:58.169Z,19.90
2018-04-19T07:30:25.639Z,19.80
2018-04-19T07:32:53.083Z,20.00
2018-04-19T07:35:20.540Z,20.10
2018-04-19T07:37:47.996Z,20.30
2018-04-19T07:40:15.458Z,20.50
2018-04-19T07:42:42.910Z,20.40
2018-04-19T07:45:10.366Z,20.20
2018-04-19T07:47:38.592Z,20.20
2018-04-19T07:50:06.054Z,20.20
2018-04-19T07:52:33.524Z,20.70
2018-04-19T07:55:01.013Z,20.50
2018-04-19T07:57:28.471Z,20.60
2018-04-19T07:59:55.930Z,20.50
2018-04-19T08:02:24.171Z,20.50
2018-04-19T08:04:51.630Z,20.60
2018-04-19T08:07:19.090Z,20.80
2018-04-19T08:09:47.342Z,20.70
2018-04-19T08:12:14.787Z,20.70
2018-04-19T08:14:42.267Z,21.20
2018-04-19T08:17:09.720Z,21.00
2018-04-19T08:19:37.174Z,20.90
2018-04-19T08:22:04.649Z,20.70
2018-04-19T08:24:32.121Z,20.50
2018-04-19T08:27:01.327Z,20.70
2018-04-19T08:29:28.799Z,21.10
2018-04-19T08:31:56.244Z,21.10
2018-04-19T08:34:23.674Z,21.30
2018-04-19T08:36:51.152Z,21.20
2018-04-19T08:39:18.820Z,21.50
2018-04-19T08:41:47.035Z,21.50
2018-04-19T08:44:14.490Z,21.40
2018-04-19T08:46:41.955Z,21.90
2018-04-19T08:49:09.413Z,22.10
2018-04-19T08:51:37.617Z,22.00
2018-04-19T08:54:05.080Z,22.00
2018-04-19T08:56:32.649Z,22.10
2018-04-19T08:59:00.127Z,22.40
2018-04-19T09:01:27.588Z,22.20
2018-04-19T09:03:55.043Z,22.40
2018-04-19T09:06:22.502Z,22.60
2018-04-19T09:08:49.960Z,22.60
2018-04-19T09:11:17.444Z,22.80
2018-04-19T09:13:44.894Z,22.90
2018-04-19T09:16:12.366Z,23.00
2018-04-19T09:18:39.807Z,22.90
2018-04-19T09:21:07.275Z,22.70
2018-04-19T09:23:35.235Z,22.80
2018-04-19T09:26:03.499Z,23.00
2018-04-19T09:28:30.974Z,23.00
2018-04-19T09:30:58.437Z,23.30
2018-04-19T09:33:25.883Z,23.70
2018-04-19T09:35:53.350Z,24.00
2018-04-19T09:38:20.811Z,24.00
2018-04-19T09:40:48.274Z,24.50
2018-04-19T09:43:15.734Z,24.60
2018-04-19T09:45:43.281Z,24.30
2018-04-19T09:48:10.783Z,24.40
2018-04-19T09:50:38.243Z,24.30
2018-04-19T09:53:05.703Z,24.30
2018-04-19T09:55:33.159Z,24.60
2018-04-19T09:58:08.300Z,24.60
2018-04-19T10:00:41.380Z,24.50
2018-04-19T10:03:23.394Z,24.20
2018-04-19T10:05:57.238Z,24.30
2018-04-19T10:08:24.711Z,24.20
2018-04-19T10:10:52.197Z,24.30
2018-04-19T10:13:19.671Z,24.70
2018-04-19T10:15:47.125Z,24.60
2018-04-19T10:18:14.744Z,24.90
2018-04-19T10:20:42.197Z,25.40
2018-04-19T10:23:09.688Z,25.40
2018-04-19T10:25:37.146Z,25.20
2018-04-19T10:28:04.663Z,25.20
2018-04-19T10:30:32.120Z,25.20
2018-04-19T10:32:59.577Z,24.70
2018-04-19T10:35:27.849Z,24.60
2018-04-19T10:37:56.123Z,24.80
2018-04-19T10:40:23.573Z,24.80
2018-04-19T10:42:51.035Z,24.40
2018-04-19T10:45:19.406Z,24.50
2018-04-19T10:47:46.876Z,24.80
2018-04-19T10:50:14.332Z,24.60
2018-04-19T10:52:41.782Z,24.10
2018-04-19T10:55:10.005Z,23.70
2018-04-19T10:57:37.468Z,23.70
2018-04-19T11:00:04.933Z,23.70
2018-04-19T11:02:33.178Z,23.20
2018-04-19T11:05:00.627Z,23.20
2018-04-19T11:07:28.834Z,23.20
2018-04-19T11:09:56.290Z,23.20
2018-04-19T11:12:23.742Z,23.50
2018-04-19T11:14:51.195Z,23.60
2018-04-19T11:17:18.665Z,23.50
2018-04-19T11:19:46.154Z,23.40
2018-04-19T11:22:13.619Z,23.20
2018-04-19T11:24:41.604Z,23.00
2018-04-19T11:27:09.063Z,23.00
2018-04-19T11:29:36.505Z,23.10
2018-04-19T11:32:03.975Z,23.20
2018-04-19T11:34:31.436Z,23.20
2018-04-19T11:36:58.869Z,23.30
2018-04-19T11:39:26.327Z,23.30
2018-04-19T11:41:53.783Z,23.20
2018-04-19T11:44:21.260Z,23.10
2018-04-19T11:46:48.720Z,23.10
2018-04-19T11:49:16.992Z,23.20
2018-04-19T11:51:44.458Z,23.10
2018-04-19T11:54:11.915Z,23.10
2018-04-19T11:56:39.400Z,23.20
2018-04-19T11:59:06.854Z,23.30
2018-04-19T12:01:34.369Z,23.30
2018-04-19T12:04:02.591Z,23.50
2018-04-19T12:06:30.817Z,23.50
2018-04-19T12:08:58.314Z,23.50
2018-04-19T12:11:26.342Z,23.50
2018-04-19T12:13:53.806Z,23.60
2018-04-19T12:16:21.258Z,23.80
2018-04-19T12:18:48.717Z,23.60
2018-04-19T12:21:16.180Z,23.60
2018-04-19T12:23:43.631Z,23.70
2018-04-19T12:26:11.094Z,23.80
2018-04-19T12:28:38.547Z,23.70
2018-04-19T12:31:06.005Z,23.70
2018-04-19T12:33:33.460Z,23.80
2018-04-19T12:36:01.278Z,23.90
2018-04-19T12:38:29.624Z,24.00
2018-04-19T12:40:57.066Z,24.00
2018-04-19T12:43:24.540Z,24.10
2018-04-19T12:45:51.991Z,24.00
2018-04-19T12:48:19.470Z,23.90
2018-04-19T12:50:46.922Z,24.00
2018-04-19T12:53:14.436Z,24.00
2018-04-19T12:55:41.877Z,23.90
2018-04-19T12:58:09.303Z,24.00
2018-04-19T13:00:36.758Z,24.10
2018-04-19T13:03:04.221Z,24.20
2018-04-19T13:05:31.664Z,24.40
2018-04-19T13:07:59.898Z,24.50
2018-04-19T13:10:27.364Z,24.50
2018-04-19T13:12:55.619Z,24.60
2018-04-19T13:15:23.046Z,24.60
2018-04-19T13:17:50.497Z,24.60
2018-04-19T13:20:17.945Z,24.60
2018-04-19T13:22:45.397Z,24.30
2018-04-19T13:25:13.633Z,24.40
2018-04-19T13:27:42.050Z,24.40
2018-04-19T13:30:09.535Z,24.20
2018-04-19T13:32:36.992Z,24.30
2018-04-19T13:35:04.448Z,24.20
2018-04-19T13:37:32.730Z,24.50
2018-04-19T13:40:00.198Z,24.50
2018-04-19T13:42:27.637Z,24.60
2018-04-19T13:44:55.099Z,24.50
2018-04-19T13:47:22.643Z,24.50
2018-04-19T13:49:50.111Z,24.40
2018-04-19T13:52:17.572Z,24.50
2018-04-19T13:54:45.028Z,24.70
2018-04-19T13:57:15.322Z,24.70
2018-04-19T13:59:42.804Z,24.50
2018-04-19T14:02:10.320Z,24.60
2018-04-19T14:04:37.777Z,24.60
2018-04-19T14:07:05.254Z,24.50
2018-04-19T14:09:32.733Z,24.60
2018-04-19T14:12:00.192Z,24.60
2018-04-19T14:14:28.910Z,24.50
2018-04-19T14:16:56.341Z,24.40
2018-04-19T14:19:23.848Z,24.60
2018-04-19T14:21:51.309Z,24.50
2018-04-19T14:24:18.774Z,24.50
2018-04-19T14:26:46.316Z,24.40
2018-04-19T14:29:13.824Z,24.40
2018-04-19T14:31:41.386Z,24.40
2018-04-19T14:34:08.893Z,24.50
2018-04-19T14:36:36.404Z,24.60
2018-04-19T14:39:03.892Z,24.50
2018-04-19T14:41:31.340Z,24.50
2018-04-19T14:43:59.584Z,24.60
2018-04-19T14:46:27.046Z,24.60
2018-04-19T14:48:55.268Z,24.50
2018-04-19T14:51:23.206Z,24.50
2018-04-19T14:53:51.469Z,24.60
2018-04-19T14:56:18.935Z,24.60
2018-04-19T14:58:47.431Z,24.60
2018-04-19T15:01:14.986Z,24.60
2018-04-19T15:03:42.430Z,24.50
2018-04-19T15:06:10.663Z,24.40
2018-04-19T15:08:38.131Z,24.40
2018-04-19T15:11:06.361Z,24.20
2018-04-19T15:13:33.808Z,24.20
2018-04-19T15:16:01.258Z,24.20
2018-04-19T15:18:28.702Z,24.20
2018-04-19T15:20:56.784Z,24.20
2018-04-19T15:23:24.248Z,24.20
2018-04-19T15:25:51.738Z,24.20
2018-04-19T15:28:19.187Z,24.10
2018-04-19T15:30:46.636Z,24.10
2018-04-19T15:33:14.070Z,24.10
2018-04-19T15:35:41.514Z,24.00
2018-04-19T15:38:08.985Z,24.00
2018-04-19T15:40:37.189Z,24.00
2018-04-19T15:43:05.341Z,24.00
2018-04-19T15:45:32.812Z,24.00
2018-04-19T15:48:00.346Z,24.00
2018-04-19T15:50:27.884Z,24.00
2018-04-19T15:52:55.341Z,24.00
2018-04-19T15:55:23.592Z,23.90
2018-04-19T15:57:51.072Z,23.90
2018-04-19T16:00:19.295Z,23.80
2018-04-19T16:02:46.738Z,23.80
2018-04-19T16:05:14.176Z,23.80
2018-04-19T16:07:42.021Z,23.80
2018-04-19T16:10:09.463Z,23.80
2018-04-19T16:12:36.921Z,23.80
2018-04-19T16:15:04.426Z,23.80
2018-04-19T16:17:31.900Z,23.80
2018-04-19T16:19:59.323Z,23.80
2018-04-19T16:22:26.770Z,23.80
2018-04-19T16:24:54.292Z,23.70
2018-04-19T16:27:21.783Z,23.80
2018-04-19T16:29:49.242Z,23.70
2018-04-19T16:32:16.694Z,23.70
2018-04-19T16:34:44.180Z,23.60
2018-04-19T16:37:11.683Z,23.60
2018-04-19T16:39:39.885Z,23.50
2018-04-19T16:42:07.376Z,23.40
2018-04-19T16:44:34.806Z,23.40
2018-04-19T16:47:02.300Z,23.30
2018-04-19T16:49:31.757Z,23.30
2018-04-19T16:51:59.212Z,23.20
2018-04-19T16:54:26.682Z,23.20
2018-04-19T16:56:54.259Z,23.20
2018-04-19T16:59:21.764Z,23.20
2018-04-19T17:01:49.213Z,23.20
2018-04-19T17:04:16.656Z,23.20
2018-04-19T17:06:44.113Z,23.20
2018-04-19T17:09:11.611Z,23.20
2018-04-19T17:11:39.078Z,23.10
2018-04-19T17:14:06.534Z,23.10
2018-04-19T17:16:34.011Z,23.00
2018-04-19T17:19:02.219Z,22.90
2018-04-19T17:21:29.695Z,22.90
2018-04-19T17:23:57.153Z,22.90
2018-04-19T17:26:24.589Z,22.90
2018-04-19T17:28:52.068Z,22.90
2018-04-19T17:31:19.555Z,22.80
2018-04-19T17:33:47.056Z,22.80
2018-04-19T17:36:14.522Z,22.70
2018-04-19T17:38:41.993Z,22.60
2018-04-19T17:41:09.444Z,22.50
2018-04-19T17:43:36.901Z,22.40
2018-04-19T17:46:04.420Z,22.40
2018-04-19T17:48:31.860Z,22.30
2018-04-19T17:50:59.301Z,22.30
2018-04-19T17:53:27.783Z,22.30
2018-04-19T17:55:55.213Z,22.20
2018-04-19T17:58:22.670Z,22.10
2018-04-19T18:00:50.120Z,22.10
2018-04-19T18:03:18.351Z,21.90
2018-04-19T18:05:45.812Z,22.00
2018-04-19T18:08:13.266Z,21.90
2018-04-19T18:10:41.474Z,21.80
2018-04-19T18:13:09.102Z,21.80
2018-04-19T18:15:37.191Z,21.70
2018-04-19T18:18:04.675Z,21.70
2018-04-19T18:20:32.101Z,21.60
2018-04-19T18:22:59.598Z,21.50
2018-04-19T18:25:26.982Z,21.50
2018-04-19T18:27:54.503Z,21.50
2018-04-19T18:30:21.912Z,21.40
2018-04-19T18:32:49.372Z,21.40
2018-04-19T18:35:16.831Z,21.30
2018-04-19T18:37:44.270Z,21.20
2018-04-19T18:40:11.878Z,21.10
2018-04-19T18:42:40.666Z,21.10
2018-04-19T18:45:09.774Z,21.00
2018-04-19T18:47:37.826Z,21.00
2018-04-19T18:50:07.151Z,20.90
2018-04-19T18:52:34.915Z,20.90
2018-04-19T18:55:03.162Z,20.80
2018-04-19T18:57:30.619Z,20.80
2018-04-19T18:59:58.847Z,20.70
2018-04-19T19:02:27.072Z,20.60
2018-04-19T19:04:54.785Z,20.60
2018-04-19T19:07:22.256Z,20.70
2018-04-19T19:09:49.721Z,20.70
2018-04-19T19:12:17.193Z,20.70
2018-04-19T19:14:44.654Z,20.70
2018-04-19T19:17:23.723Z,20.60
2018-04-19T19:20:03.023Z,20.60
2018-04-19T19:22:30.492Z,20.60
2018-04-19T19:24:57.965Z,20.50
2018-04-19T19:27:25.417Z,20.50
2018-04-19T19:29:53.643Z,20.40
2018-04-19T19:32:21.098Z,20.40
2018-04-19T19:34:48.551Z,20.40
2018-04-19T19:37:17.041Z,20.30
2018-04-19T19:39:45.262Z,20.20
2018-04-19T19:42:12.747Z,20.10
2018-04-19T19:44:40.952Z,20.00
2018-04-19T19:47:08.398Z,20.00
2018-04-19T19:49:35.887Z,20.00
2018-04-19T19:52:03.326Z,20.10
2018-04-19T19:54:30.808Z,20.00
2018-04-19T19:56:58.238Z,20.00
2018-04-19T19:59:25.718Z,19.90
2018-04-19T20:01:53.159Z,19.80
2018-04-19T20:04:21.403Z,19.70
2018-04-19T20:06:48.849Z,19.70
2018-04-19T20:09:16.389Z,19.70
2018-04-19T20:11:43.850Z,19.70
2018-04-19T20:14:11.340Z,19.60
2018-04-19T20:16:39.542Z,19.50
2018-04-19T20:19:07.083Z,19.50
2018-04-19T20:21:34.539Z,19.40
2018-04-19T20:24:02.052Z,19.40
2018-04-19T20:26:29.543Z,19.30
2018-04-19T20:28:57.014Z,19.30
2018-04-19T20:31:24.467Z,19.20
2018-04-19T20:33:52.795Z,19.10
2018-04-19T20:36:21.019Z,19.00
2018-04-19T20:38:48.485Z,19.00
2018-04-19T20:41:15.935Z,19.00
2018-04-19T20:43:43.379Z,19.00
2018-04-19T20:46:10.855Z,19.00
2018-04-19T20:48:38.312Z,18.90
2018-04-19T20:51:05.768Z,18.90
2018-04-19T20:53:33.234Z,18.80
2018-04-19T20:56:00.682Z,18.80
2018-04-19T20:58:28.143Z,18.80
2018-04-19T21:00:56.187Z,18.70
2018-04-19T21:03:23.678Z,18.70
2018-04-19T21:05:51.144Z,18.60
2018-04-19T21:08:18.590Z,18.60
2018-04-19T21:10:46.035Z,18.60
2018-04-19T21:13:13.544Z,18.50
2018-04-19T21:15:41.012Z,18.50
2018-04-19T21:18:08.468Z,18.40
2018-04-19T21:20:35.946Z,18.40
2018-04-19T21:23:03.434Z,18.40
2018-04-19T21:25:31.022Z,18.30
2018-04-19T21:27:58.453Z,18.40
2018-04-19T21:30:26.678Z,18.20
2018-04-19T21:32:54.174Z,18.20
2018-04-19T21:35:21.640Z,18.20
2018-04-19T21:37:49.082Z,18.20
2018-04-19T21:40:16.538Z,18.10
2018-04-19T21:42:44.743Z,18.00
2018-04-19T21:45:12.194Z,18.00
2018-04-19T21:47:39.626Z,18.00
2018-04-19T21:50:07.105Z,18.00
2018-04-19T21:52:34.544Z,17.90
2018-04-19T21:55:02.024Z,17.90
2018-04-19T21:57:30.266Z,17.80
2018-04-19T21:59:57.750Z,17.80
2018-04-19T22:02:25.191Z,17.70
2018-04-19T22:04:52.660Z,17.70
2018-04-19T22:07:20.106Z,17.70
2018-04-19T22:09:47.646Z,17.60
2018-04-19T22:12:15.646Z,17.60
2018-04-19T22:14:43.892Z,17.60
2018-04-19T22:17:11.353Z,17.60
2018-04-19T22:19:40.160Z,17.50
2018-04-19T22:22:07.615Z,17.50
2018-04-19T22:24:35.075Z,17.40
2018-04-19T22:27:03.320Z,17.40
2018-04-19T22:29:30.845Z,17.40
2018-04-19T22:31:58.264Z,17.30
2018-04-19T22:34:25.718Z,17.30
2018-04-19T22:36:53.182Z,17.20
2018-04-19T22:39:20.642Z,17.20
2018-04-19T22:41:48.143Z,17.20
2018-04-19T22:44:16.363Z,17.10
2018-04-19T22:46:43.823Z,17.10
2018-04-19T22:49:11.281Z,17.00
2018-04-19T22:51:39.547Z,16.90
2018-04-19T22:54:07.002Z,16.90
2018-04-19T22:56:34.467Z,16.80
2018-04-19T22:59:01.913Z,16.80
2018-04-19T23:01:29.372Z,16.80
2018-04-19T23:03:56.887Z,16.80
2018-04-19T23:06:24.347Z,16.80
2018-04-19T23:08:51.862Z,16.80
2018-04-19T23:11:19.310Z,16.80
2018-04-19T23:13:46.783Z,16.70
2018-04-19T23:16:14.227Z,16.70
2018-04-19T23:18:41.678Z,16.60
2018-04-19T23:21:09.133Z,16.60
2018-04-19T23:23:36.594Z,16.60
2018-04-19T23:26:04.053Z,16.60
2018-04-19T23:28:31.506Z,16.60
2018-04-19T23:30:58.958Z,16.60
2018-04-19T23:33:26.406Z,16.50
2018-04-19T23:35:53.868Z,16.50
2018-04-19T23:38:21.326Z,16.50
2018-04-19T23:40:48.798Z,16.50
2018-04-19T23:43:17.019Z,16.50
2018-04-19T23:45:44.475Z,16.40
2018-04-19T23:48:11.931Z,16.40
2018-04-19T23:50:39.370Z,16.40
2018-04-19T23:53:06.843Z,16.40
2018-04-19T23:55:35.121Z,16.30
2018-04-19T23:58:02.541Z,16.30
